Time;durP1;ratioP1;P1;durP2;ratioP2;P2;SDS_P1;SDS_P2;PMS_P1;PMS_P2;Temp;Humidity;BMP_temperature;BMP_pressure;BME280_temperature;BME280_humidity;BME280_pressure;Samples;Min_cycle;Max_cycle;Signal;HPM_P1;HPM_P2
2022/05/01 00:01:29;;;;;;;16.65;12.45;;;;;;;;;;5093441;28;20558;-49
2022/05/01 00:03:55;;;;;;;16.88;14.00;;;;;;;;;;5092505;28;20051;-49
2022/05/01 00:06:21;;;;;;;18.40;14.25;;;;;;;;;;5092682;28;20047;-47
2022/05/01 00:08:47;;;;;;;21.77;14.30;;;;;;;;;;5092948;28;20043;-48
2022/05/01 00:11:13;;;;;;;15.60;12.98;;;;;;;;;;5093926;28;20036;-44
2022/05/01 00:13:45;;;;;;;17.60;12.57;;;2.30;99.90;;;;;;5093578;28;20126;-48
2022/05/01 00:16:12;;;;;;;18.05;13.85;;;2.20;99.90;;;;;;5094413;28;20073;-46
2022/05/01 00:18:39;;;;;;;18.92;13.35;;;;;;;;;;5093394;28;20075;-46
2022/05/01 00:21:05;;;;;;;19.55;13.95;;;;;;;;;;5092549;28;20047;-44
2022/05/01 00:23:31;;;;;;;12.75;10.77;;;;;;;;;;5094406;28;20040;-42
2022/05/01 00:25:59;;;;;;;13.30;10.15;;;3.90;99.90;;;;;;5094106;28;20074;-43
2022/05/01 00:28:25;;;;;;;12.82;10.27;;;;;;;;;;5092587;28;20035;-42
2022/05/01 00:30:52;;;;;;;12.70;10.38;;;2.30;99.90;;;;;;5092546;28;20042;-42
2022/05/01 00:38:47;;;;;;;12.80;9.68;;;;;;;;;;5092552;28;20103;-41
2022/05/01 00:41:14;;;;;;;12.52;10.50;;;;;;;;;;5092426;28;20082;-47
2022/05/01 00:44:06;;;;;;;13.40;10.88;;;1.80;99.90;;;;;;5090981;28;20087;-43
2022/05/01 00:46:37;;;;;;;13.15;9.85;;;2.00;99.90;;;;;;5091925;28;20177;-45
2022/05/01 00:49:07;;;;;;;12.73;8.82;;;2.10;99.90;;;;;;5092081;28;20074;-42
2022/05/01 00:51:37;;;;;;;8.05;6.35;;;2.10;99.90;;;;;;5092545;28;20981;-42
2022/05/01 00:54:07;;;;;;;7.82;6.03;;;;;;;;;;5093664;28;20039;-42
2022/05/01 00:56:35;;;;;;;9.88;7.95;;;1.90;99.90;;;;;;5090928;28;20043;-41
2022/05/01 00:59:01;;;;;;;11.02;9.07;;;;;;;;;;5092894;28;20101;-43
2022/05/01 01:01:27;;;;;;;10.75;8.70;;;;;;;;;;5092324;28;20046;-42
2022/05/01 01:03:54;;;;;;;9.38;7.57;;;;;;;;;;5092133;28;20048;-43
2022/05/01 01:06:21;;;;;;;9.35;7.60;;;;;;;;;;5092576;28;20039;-42
2022/05/01 01:08:47;;;;;;;12.00;7.63;;;;;;;;;;5092228;28;20038;-44
2022/05/01 01:11:14;;;;;;;9.35;7.82;;;1.90;99.90;;;;;;5092276;28;20044;-43
2022/05/01 01:13:42;;;;;;;12.48;8.90;;;;;;;;;;5091218;28;20095;-42
2022/05/01 01:16:09;;;;;;;11.10;8.75;;;1.80;99.90;;;;;;5092092;28;20052;-44
2022/05/01 01:18:35;;;;;;;12.55;8.30;;;;;;;;;;5092184;28;20089;-43
2022/05/01 01:21:01;;;;;;;10.77;8.55;;;;;;;;;;5092567;28;20104;-45
2022/05/01 01:23:29;;;;;;;10.90;8.00;;;1.70;99.90;;;;;;5093923;28;20050;-46
2022/05/01 01:25:55;;;;;;;17.27;8.25;;;;;;;;;;5093019;28;20244;-45
2022/05/01 01:28:21;;;;;;;10.82;7.88;;;;;;;;;;5090508;28;20036;-45
2022/05/01 01:33:36;;;;;;;10.07;6.82;;;;;;;;;;5091443;28;20112;-44
2022/05/01 01:36:04;;;;;;;11.20;6.93;;;1.50;99.90;;;;;;5093813;28;20085;-46
2022/05/01 01:38:30;;;;;;;8.73;7.07;;;1.40;99.90;;;;;;5095016;28;20408;-47
2022/05/01 01:40:58;;;;;;;10.15;7.03;;;1.50;99.90;;;;;;5095840;28;20512;-45
2022/05/01 01:43:27;;;;;;;8.85;7.00;;;1.40;99.90;;;;;;5096698;28;20058;-43
2022/05/01 01:45:57;;;;;;;9.20;6.72;;;1.40;99.90;;;;;;5096187;28;20036;-43
2022/05/01 01:48:24;;;;;;;10.43;7.40;;;1.40;99.90;;;;;;5096433;28;20055;-45
2022/05/01 01:51:06;;;;;;;9.05;7.50;;;1.40;99.90;;;;;;5097451;28;20032;-43
2022/05/01 01:53:33;;;;;;;8.82;7.20;;;1.30;99.90;;;;;;5096618;28;20438;-43
2022/05/01 01:56:00;;;;;;;9.98;7.03;;;;;;;;;;5096613;28;20116;-44
2022/05/01 01:58:27;;;;;;;10.25;7.38;;;1.30;99.90;;;;;;5096071;28;20042;-48
2022/05/01 02:00:53;;;;;;;9.75;7.28;;;;;;;;;;5095025;28;20084;-43
2022/05/01 02:03:19;;;;;;;11.75;7.10;;;;;;;;;;5096272;28;20054;-43
2022/05/01 02:05:49;;;;;;;14.60;7.45;;;;;;;;;;5093212;28;20039;-42
2022/05/01 02:08:15;;;;;;;14.70;8.48;;;1.40;99.90;;;;;;5095039;28;20053;-45
2022/05/01 02:10:41;;;;;;;22.92;9.05;;;;;;;;;;5094399;28;20051;-42
2022/05/01 02:13:07;;;;;;;38.92;10.30;;;;;;;;;;5095726;28;20051;-46
2022/05/01 02:15:35;;;;;;;14.30;9.23;;;1.10;99.90;;;;;;5094372;28;20070;-43
2022/05/01 02:18:01;;;;;;;24.00;11.05;;;;;;;;;;5094251;28;20035;-42
2022/05/01 02:21:33;;;;;;;20.60;11.13;;;1.00;99.90;;;;;;5094659;28;20036;-43
2022/05/01 02:23:18;;;;;;;174.07;15.20;;;1.10;99.90;;;;;;5094709;28;20039;-42
2022/05/01 02:25:44;;;;;;;78.22;13.68;;;;;;;;;;5095204;28;20054;-43
2022/05/01 02:28:14;;;;;;;70.15;12.77;;;;;;;;;;5093718;28;20039;-45
2022/05/01 02:30:40;;;;;;;47.08;12.68;;;;;;;;;;5094897;28;20062;-42
2022/05/01 02:33:07;;;;;;;111.80;14.02;;;;;;;;;;5094663;28;20533;-44
2022/05/01 02:35:33;;;;;;;52.80;12.23;;;;;;;;;;5094559;28;20061;-43
2022/05/01 02:38:01;;;;;;;73.72;12.43;;;;;;;;;;5093957;28;20131;-44
2022/05/01 02:40:29;;;;;;;81.57;13.18;;;;;;;;;;5095477;28;20507;-43
2022/05/01 02:43:01;;;;;;;95.15;13.75;;;0.80;99.90;;;;;;5094339;28;20320;-43
2022/05/01 02:45:28;;;;;;;70.63;13.05;;;0.80;99.90;;;;;;5094556;28;20036;-43
2022/05/01 02:47:55;;;;;;;91.63;12.73;;;;;;;;;;5094215;28;20210;-44
2022/05/01 02:50:22;;;;;;;58.63;13.00;;;0.70;99.90;;;;;;5093541;28;20122;-42
2022/05/01 02:52:51;;;;;;;74.60;12.77;;;;;;;;;;5094938;28;20073;-42
2022/05/01 02:55:17;;;;;;;138.52;14.57;;;0.60;99.90;;;;;;5095981;28;20040;-41
2022/05/01 02:57:44;;;;;;;166.10;14.98;;;;;;;;;;5094272;28;20051;-43
2022/05/01 03:00:16;;;;;;;114.20;14.70;;;0.40;99.90;;;;;;5095412;28;20042;-42
2022/05/01 03:02:46;;;;;;;61.17;14.45;;;0.30;99.90;;;;;;5095275;27;20047;-42
2022/05/01 03:05:12;;;;;;;73.93;14.45;;;;;;;;;;5094979;28;20046;-41
2022/05/01 03:07:39;;;;;;;103.00;16.05;;;;;;;;;;5094083;28;20042;-41
2022/05/01 03:10:05;;;;;;;59.75;14.30;;;;;;;;;;5094686;28;21193;-40
2022/05/01 03:12:31;;;;;;;70.22;13.75;;;;;;;;;;5094850;28;20035;-41
2022/05/01 03:14:57;;;;;;;94.18;14.73;;;;;;;;;;5095241;28;20042;-41
2022/05/01 03:17:23;;;;;;;49.47;13.02;;;;;;;;;;5093458;28;20050;-41
2022/05/01 03:22:36;;;;;;;64.68;13.02;;;;;;;;;;5094158;28;20121;-41
2022/05/01 03:25:02;;;;;;;37.97;12.93;;;;;;;;;;5095024;28;20068;-41
2022/05/01 03:27:28;;;;;;;39.42;11.88;;;;;;;;;;5092631;28;20050;-41
2022/05/01 03:32:42;;;;;;;14.27;11.68;;;0.10;99.90;;;;;;5093660;28;20096;-41
2022/05/01 03:35:08;;;;;;;15.50;12.35;;;;;;;;;;5092467;28;20527;-41
2022/05/01 03:37:34;;;;;;;61.22;13.15;;;;;;;;;;5093571;28;20035;-41
2022/05/01 03:40:00;;;;;;;65.18;13.07;;;0.10;99.90;;;;;;5091771;28;20044;-42
2022/05/01 03:42:27;;;;;;;46.95;14.10;;;;;;;;;;5091756;28;20130;-45
2022/05/01 03:44:53;;;;;;;123.35;14.88;;;;;;;;;;5093217;28;20102;-42
2022/05/01 03:47:21;;;;;;;125.15;15.63;;;0.00;99.90;;;;;;5093501;28;20039;-44
2022/05/01 03:49:47;;;;;;;62.22;14.00;;;;;;;;;;5093098;28;20035;-44
2022/05/01 03:52:13;;;;;;;102.45;14.27;;;;;;;;;;5094004;28;20043;-43
2022/05/01 03:54:40;;;;;;;89.47;14.00;;;-0.10;99.90;;;;;;5092234;28;20400;-43
2022/05/01 03:57:08;;;;;;;59.97;13.60;;;;;;;;;;5092774;28;20108;-45
2022/05/01 03:59:34;;;;;;;16.30;12.73;;;;;;;;;;5092936;28;20058;-45
2022/05/01 04:02:00;;;;;;;77.60;14.45;;;;;;;;;;5092397;28;20427;-43
2022/05/01 04:04:26;;;;;;;35.22;15.20;;;;;;;;;;5094408;28;20047;-43
2022/05/01 04:06:52;;;;;;;110.50;16.70;;;;;;;;;;5092680;28;20035;-42
2022/05/01 04:09:23;;;;;;;84.75;14.60;;;0.10;99.90;;;;;;5092871;28;20142;-41
2022/05/01 04:11:49;;;;;;;87.47;15.23;;;;;;;;;;5092822;28;20046;-41
2022/05/01 04:14:15;;;;;;;41.30;15.77;;;;;;;;;;5093362;28;20098;-41
2022/05/01 04:16:41;;;;;;;70.22;15.20;;;;;;;;;;5093071;28;20035;-43
2022/05/01 04:19:11;;;;;;;53.05;14.32;;;;;;;;;;5092361;28;20035;-41
2022/05/01 04:21:38;;;;;;;107.32;14.38;;;;;;;;;;5093410;28;20436;-41
2022/05/01 04:24:04;;;;;;;45.67;13.98;;;0.20;99.90;;;;;;5093171;28;20043;-42
2022/05/01 04:26:30;;;;;;;15.52;13.38;;;;;;;;;;5094060;28;20067;-42
2022/05/01 04:31:41;;;;;;;16.95;13.60;;;;;;;;;;5093388;28;20043;-41
2022/05/01 04:34:07;;;;;;;37.50;14.93;;;;;;;;;;5093417;28;20043;-41
2022/05/01 04:36:33;;;;;;;168.32;17.98;;;;;;;;;;5093564;28;20130;-41
2022/05/01 04:39:03;;;;;;;108.82;15.57;;;0.60;99.90;;;;;;5093941;28;20051;-40
2022/05/01 04:41:30;;;;;;;100.65;16.35;;;;;;;;;;5093209;28;20646;-42
2022/05/01 04:43:56;;;;;;;92.80;14.82;;;;;;;;;;5093050;28;20176;-42
2022/05/01 04:46:23;;;;;;;56.95;13.85;;;0.60;99.90;;;;;;5091643;28;20035;-42
2022/05/01 04:48:50;;;;;;;152.75;18.48;;;0.70;99.90;;;;;;5092812;28;20040;-41
2022/05/01 04:51:17;;;;;;;79.95;16.00;;;;;;;;;;5092447;28;20036;-42
2022/05/01 04:53:43;;;;;;;97.40;16.85;;;;;;;;;;5093157;28;20480;-40
2022/05/01 04:58:55;;;;;;;21.27;15.18;;;;;;;;;;5092589;28;20087;-41
2022/05/01 05:01:23;;;;;;;16.45;14.35;;;1.40;99.90;;;;;;5093250;28;20044;-41
2022/05/01 05:03:50;;;;;;;17.52;14.75;;;;;;;;;;5091909;28;20132;-41
2022/05/01 05:06:16;;;;;;;24.60;16.60;;;;;;;;;;5091950;28;20108;-41
2022/05/01 05:11:27;;;;;;;25.85;17.10;;;;;;;;;;5093893;28;20142;-43
2022/05/01 05:13:54;;;;;;;27.17;16.17;;;2.10;99.90;;;;;;5094660;28;20046;-41
2022/05/01 05:16:21;;;;;;;19.67;13.80;;;;;;;;;;5095967;28;20517;-41
2022/05/01 05:18:47;;;;;;;14.85;13.25;;;;;;;;;;5095345;28;20332;-42
2022/05/01 05:21:13;;;;;;;14.02;12.52;;;;;;;;;;5095395;28;20400;-42
2022/05/01 05:23:39;;;;;;;16.80;14.27;;;;;;;;;;5096904;28;20056;-43
2022/05/01 05:26:05;;;;;;;16.02;12.80;;;;;;;;;;5096102;28;20046;-43
2022/05/01 05:28:32;;;;;;;15.25;12.88;;;;;;;;;;5095758;28;20040;-44
2022/05/01 05:30:58;;;;;;;15.77;13.38;;;;;;;;;;5095402;28;20050;-45
2022/05/01 05:33:24;;;;;;;14.25;12.43;;;;;;;;;;5096985;28;20052;-43
2022/05/01 05:35:52;;;;;;;13.82;12.38;;;3.20;99.90;;;;;;5095718;28;20039;-44
2022/05/01 05:38:18;;;;;;;15.23;13.20;;;;;;;;;;5096179;28;20056;-45
2022/05/01 05:40:44;;;;;;;14.70;13.07;;;;;;;;;;5095576;28;20131;-43
2022/05/01 05:43:12;;;;;;;15.43;13.50;;;3.90;99.90;;;;;;5096525;28;20060;-45
2022/05/01 05:45:38;;;;;;;13.88;12.38;;;;;;;;;;5096927;28;20134;-44
2022/05/01 05:48:05;;;;;;;18.05;12.23;;;4.30;99.90;;;;;;5095858;28;20497;-42
2022/05/01 05:50:32;;;;;;;10.77;9.65;;;4.80;99.90;;;;;;5096379;28;20047;-44
2022/05/01 05:52:58;;;;;;;11.20;10.05;;;5.40;99.90;;;;;;5094942;28;20039;-46
2022/05/01 05:55:24;;;;;;;10.65;9.45;;;5.50;99.90;;;;;;5095901;28;20047;-44
2022/05/01 05:57:53;;;;;;;9.15;8.15;;;6.50;99.90;;;;;;5095735;28;20047;-44
2022/05/01 06:00:22;;;;;;;9.43;8.43;;;7.50;99.90;;;;;;5093050;28;20048;-46
2022/05/01 06:02:47;;;;;;;8.75;7.60;;;8.50;99.90;;;;;;5094939;28;20247;-48
2022/05/01 06:05:13;;;;;;;8.30;7.28;;;9.30;99.90;;;;;;5096326;27;20084;-48
2022/05/01 06:07:39;;;;;;;10.88;7.80;;;10.30;99.90;;;;;;5094896;28;20515;-45
2022/05/01 06:10:05;;;;;;;8.98;7.03;;;11.70;99.90;;;;;;5092447;28;20036;-45
2022/05/01 06:12:30;;;;;;;8.60;7.10;;;11.70;99.90;;;;;;5094391;28;20153;-49
2022/05/01 06:14:56;;;;;;;12.70;7.32;;;11.90;99.90;;;;;;5095385;28;20039;-46
2022/05/01 06:17:22;;;;;;;8.10;7.30;;;12.60;99.90;;;;;;5094736;28;20039;-45
2022/05/01 06:19:49;;;;;;;8.25;7.35;;;12.30;99.90;;;;;;5094232;28;20233;-48
2022/05/01 06:22:15;;;;;;;11.93;7.82;;;12.10;99.90;;;;;;5093956;28;21039;-45
2022/05/01 06:24:40;;;;;;;9.15;6.97;;;12.70;99.90;;;;;;5094646;28;20124;-45
2022/05/01 06:27:08;;;;;;;8.80;7.13;;;12.70;99.90;;;;;;5093579;28;20027;-45
2022/05/01 06:29:34;;;;;;;9.02;7.72;;;13.30;99.90;;;;;;5095176;28;20038;-49
2022/05/01 06:32:00;;;;;;;7.15;6.13;;;13.30;99.90;;;;;;5095444;28;20086;-44
2022/05/01 06:34:25;;;;;;;7.88;6.35;;;13.80;99.90;;;;;;5094195;28;20422;-47
2022/05/01 06:36:54;;;;;;;7.95;6.05;;;16.40;99.90;;;;;;5094271;28;20035;-43
2022/05/01 06:39:19;;;;;;;8.20;6.40;;;15.30;99.90;;;;;;5093866;28;20032;-44
2022/05/01 06:41:45;;;;;;;7.50;6.45;;;15.30;99.90;;;;;;5094380;28;20407;-49
2022/05/01 06:44:11;;;;;;;6.78;5.65;;;14.50;99.90;;;;;;5091863;28;20036;-46
2022/05/01 06:46:36;;;;;;;8.75;5.65;;;15.70;99.90;;;;;;5092605;28;20214;-46
2022/05/01 06:49:02;;;;;;;8.70;5.10;;;16.50;99.90;;;;;;5090787;28;20032;-47
2022/05/01 06:51:28;;;;;;;7.97;5.25;;;15.80;99.90;;;;;;5091579;28;20055;-50
2022/05/01 06:53:53;;;;;;;7.22;5.22;;;16.30;99.90;;;;;;5093449;28;20027;-46
2022/05/01 06:56:19;;;;;;;7.60;4.63;;;17.10;99.90;;;;;;5092821;28;20391;-51
2022/05/01 06:58:45;;;;;;;6.32;4.00;;;17.90;99.90;;;;;;5093785;28;20075;-47
2022/05/01 07:01:10;;;;;;;6.18;3.97;;;20.70;99.90;;;;;;5094151;28;20373;-50
2022/05/01 07:03:36;;;;;;;7.35;3.95;;;19.10;99.90;;;;;;5094284;28;20119;-49
2022/05/01 07:06:04;;;;;;;6.60;4.53;;;19.10;99.90;;;;;;5094233;28;20039;-47
2022/05/01 07:08:29;;;;;;;9.23;4.78;;;19.50;99.90;;;;;;5093714;28;20031;-47
2022/05/01 07:10:55;;;;;;;742.33;673.90;;;19.60;99.90;;;;;;5093471;28;20042;-46
2022/05/01 07:13:21;;;;;;;580.13;531.92;;;19.20;99.90;;;;;;5092308;28;20037;-48
2022/05/01 07:15:47;;;;;;;408.90;347.17;;;19.10;99.90;;;;;;5093762;28;20042;-50
2022/05/01 07:18:12;;;;;;;581.65;533.72;;;18.30;99.90;;;;;;5093616;28;20058;-47
2022/05/01 07:20:40;;;;;;;135.02;111.60;;;19.10;99.90;;;;;;5094600;28;20184;-50
2022/05/01 07:23:06;;;;;;;6.53;4.30;;;19.20;99.90;;;;;;5092747;28;20047;-52
2022/05/01 07:25:32;;;;;;;6.45;3.47;;;19.30;99.90;;;;;;5094154;28;20282;-48
2022/05/01 07:27:58;;;;;;;6.50;3.95;;;19.90;98.50;;;;;;5093813;28;20114;-50
2022/05/01 07:30:24;;;;;;;7.00;4.20;;;20.20;96.10;;;;;;5093879;28;20092;-51
2022/05/01 07:32:49;;;;;;;6.57;4.10;;;20.20;95.50;;;;;;5092231;28;20045;-52
2022/05/01 07:35:15;;;;;;;5.88;3.78;;;19.60;97.60;;;;;;5091832;28;20520;-51
2022/05/01 07:37:44;;;;;;;8.25;4.05;;;18.80;98.00;;;;;;5092844;28;20039;-49
2022/05/01 07:40:11;;;;;;;7.63;4.20;;;18.10;99.80;;;;;;5092591;28;20550;-51
2022/05/01 07:42:36;;;;;;;7.82;4.22;;;17.10;99.90;;;;;;5091542;28;20052;-48
2022/05/01 07:45:03;;;;;;;7.03;3.40;;;16.80;99.90;;;;;;5092237;28;20511;-49
2022/05/01 07:47:29;;;;;;;6.18;3.70;;;15.70;99.90;;;;;;5092062;28;20050;-48
2022/05/01 07:49:55;;;;;;;6.32;3.95;;;15.30;99.90;;;;;;5090623;28;20035;-50
2022/05/01 07:52:20;;;;;;;6.63;4.22;;;16.70;99.90;;;;;;5092591;28;20387;-50
2022/05/01 07:54:46;;;;;;;5.63;4.00;;;14.90;99.90;;;;;;5093386;28;20166;-51
2022/05/01 07:57:12;;;;;;;5.18;3.67;;;14.90;99.90;;;;;;5090679;28;20051;-50
2022/05/01 07:59:37;;;;;;;9.98;4.50;;;14.10;99.90;;;;;;5093126;28;20067;-49
2022/05/01 08:02:03;;;;;;;10.10;5.90;;;15.30;99.90;;;;;;5093824;28;20381;-53
2022/05/01 08:04:29;;;;;;;7.85;4.80;;;14.00;99.90;;;;;;5093166;28;20458;-59
2022/05/01 08:07:00;;;;;;;9.35;5.07;;;14.00;99.90;;;;;;5092937;28;20745;-51
2022/05/01 08:09:29;;;;;;;8.07;5.15;;;14.30;99.90;;;;;;5092565;28;20051;-52
2022/05/01 08:11:55;;;;;;;7.75;4.90;;;14.10;99.90;;;;;;5092894;28;20127;-52
2022/05/01 08:14:21;;;;;;;188.90;12.68;;;15.30;99.90;;;;;;5092736;28;20054;-50
2022/05/01 08:16:48;;;;;;;55.47;7.43;;;13.70;99.90;;;;;;5092206;28;20051;-52
2022/05/01 08:21:59;;;;;;;71.45;6.82;;;13.50;99.90;;;;;;5092803;28;20198;-47
2022/05/01 08:24:25;;;;;;;15.88;4.35;;;14.50;99.90;;;;;;5093288;28;20092;-47
2022/05/01 08:26:50;;;;;;;9.43;4.22;;;13.00;99.90;;;;;;5091968;28;20051;-50
2022/05/01 08:29:17;;;;;;;9.00;4.07;;;12.80;99.90;;;;;;5092019;28;20043;-45
2022/05/01 08:31:43;;;;;;;6.45;4.07;;;14.60;99.90;;;;;;5091320;28;20537;-48
2022/05/01 08:34:12;;;;;;;7.65;4.03;;;13.00;99.90;;;;;;5092313;28;20071;-49
2022/05/01 08:36:38;;;;;;;48.85;6.40;;;12.70;99.90;;;;;;5088790;28;20768;-51
2022/05/01 08:39:04;;;;;;;8.95;4.75;;;12.50;99.90;;;;;;5093005;28;20175;-51
2022/05/01 08:41:31;;;;;;;20.60;17.42;;;12.60;99.90;;;;;;5092561;28;20055;-51
2022/05/01 08:44:00;;;;;;;332.33;311.52;;;12.90;99.90;;;;;;5090651;28;20056;-52
2022/05/01 08:47:02;;;;;;;407.63;380.67;;;13.00;99.90;;;;;;5081540;28;20063;-48
2022/05/01 08:49:32;;;;;;;444.98;415.38;;;13.00;99.90;;;;;;5096407;28;20043;-51
2022/05/01 08:52:01;;;;;;;231.90;218.63;;;14.90;99.90;;;;;;5094445;28;20100;-48
2022/05/01 08:54:30;;;;;;;137.27;129.32;;;13.40;99.90;;;;;;5096749;28;20074;-50
2022/05/01 08:56:57;;;;;;;166.48;156.82;;;13.50;99.90;;;;;;5096876;28;20563;-48
2022/05/01 08:59:23;;;;;;;531.92;493.65;;;14.00;99.90;;;;;;5096496;28;21791;-50
2022/05/01 09:01:52;;;;;;;1053.03;816.67;;;13.90;99.90;;;;;;5094655;28;20511;-50
2022/05/01 09:04:18;;;;;;;658.35;476.88;;;14.20;99.90;;;;;;5095599;28;20043;-50
2022/05/01 09:06:45;;;;;;;585.17;465.65;;;14.50;99.90;;;;;;5094878;28;20081;-50
2022/05/01 09:09:17;;;;;;;979.60;791.47;;;15.20;99.90;;;;;;5094895;28;20040;-51
2022/05/01 09:14:28;;;;;;;373.67;349.27;;;15.80;99.90;;;;;;5096231;28;21483;-51
2022/05/01 09:17:10;;;;;;;354.30;332.70;;;16.10;99.90;;;;;;5095091;28;20046;-46
2022/05/01 09:19:37;;;;;;;442.08;408.92;;;15.10;99.90;;;;;;5094592;28;20063;-51
2022/05/01 09:22:03;;;;;;;794.75;719.53;;;16.60;99.90;;;;;;5094837;28;20036;-52
2022/05/01 09:24:30;;;;;;;681.35;624.85;;;16.80;99.90;;;;;;5094981;28;21386;-51
2022/05/01 09:26:59;;;;;;;699.17;638.45;;;15.40;99.90;;;;;;5097354;28;20042;-46
2022/05/01 09:29:32;;;;;;;431.00;403.02;;;16.80;99.90;;;;;;5097780;28;20451;-51
2022/05/01 09:32:01;;;;;;;799.90;718.67;;;15.10;99.90;;;;;;5097358;28;20036;-51
2022/05/01 09:34:29;;;;;;;981.33;856.88;;;15.10;99.90;;;;;;5096676;28;20080;-50
2022/05/01 09:37:00;;;;;;;630.53;578.45;;;15.00;99.90;;;;;;5095114;28;20071;-49
2022/05/01 09:39:30;;;;;;;670.10;617.75;;;14.90;99.90;;;;;;5095215;28;20111;-50
2022/05/01 09:42:13;;;;;;;1117.93;842.70;;;14.60;99.90;;;;;;5096059;28;20047;-49
2022/05/01 09:44:39;;;;;;;951.63;785.30;;;14.80;99.90;;;;;;5095877;28;20040;-48
2022/05/01 09:47:07;;;;;;;580.60;541.17;;;14.80;99.90;;;;;;5096237;28;20282;-48
2022/05/01 09:49:50;;;;;;;927.33;802.67;;;14.30;99.90;;;;;;5095229;27;20103;-51
2022/05/01 09:52:16;;;;;;;597.28;545.50;;;14.30;99.90;;;;;;5095674;28;20031;-50
2022/05/01 09:55:02;;;;;;;637.30;539.67;;;14.20;99.90;;;;;;5095949;28;20139;-47
2022/05/01 09:57:28;;;;;;;362.95;289.35;;;14.40;99.90;;;;;;5096299;28;20059;-50
2022/05/01 09:59:54;;;;;;;12.32;8.80;;;14.40;99.90;;;;;;5093515;28;20027;-50
2022/05/01 10:02:29;;;;;;;85.63;77.35;;;14.40;99.90;;;;;;5094132;28;20602;-51
2022/05/01 10:05:03;;;;;;;103.38;87.80;;;14.50;99.90;;;;;;5076526;28;20050;-48
2022/05/01 10:07:37;;;;;;;29.02;25.92;;;14.30;99.90;;;;;;5093884;28;20463;-49
2022/05/01 10:10:07;;;;;;;21.02;18.13;;;14.20;99.90;;;;;;5095159;28;20507;-49
2022/05/01 10:12:40;;;;;;;10.25;6.55;;;14.30;99.90;;;;;;5095590;28;20131;-50
2022/05/01 10:15:06;;;;;;;670.58;536.75;;;14.10;99.90;;;;;;5095734;28;20049;-50
2022/05/01 10:17:35;;;;;;;156.32;114.20;;;14.00;99.90;;;;;;5093369;28;20040;-51
2022/05/01 10:20:03;;;;;;;15.93;14.38;;;14.20;99.90;;;;;;5095056;28;20540;-49
2022/05/01 10:22:35;;;;;;;5.70;3.95;;;14.30;99.90;;;;;;5088847;28;20031;-48
2022/05/01 10:25:03;;;;;;;6.97;3.80;;;14.30;99.90;;;;;;5094388;28;21512;-49
2022/05/01 10:27:46;;;;;;;7.97;4.10;;;14.60;99.90;;;;;;5096739;28;20047;-49
2022/05/01 10:33:07;;;;;;;9.55;5.13;;;14.50;99.90;;;;;;5094382;28;20657;-45
2022/05/01 10:36:10;;;;;;;5.22;3.50;;;14.80;99.90;;;;;;5094189;28;20055;-44
2022/05/01 10:38:54;;;;;;;6.90;4.05;;;14.80;99.90;;;;;;5094709;28;20079;-47
2022/05/01 10:41:22;;;;;;;7.82;4.10;;;14.90;99.90;;;;;;5094929;28;20082;-46
2022/05/01 10:43:56;;;;;;;7.32;4.32;;;15.10;99.90;;;;;;5094551;28;20104;-49
2022/05/01 10:46:32;;;;;;;8.35;4.13;;;15.50;99.90;;;;;;5096149;28;20039;-49
2022/05/01 10:49:18;;;;;;;8.48;4.78;;;15.80;99.90;;;;;;5094700;28;20441;-46
2022/05/01 10:51:48;;;;;;;6.85;3.67;;;15.80;99.90;;;;;;5095271;28;20063;-49
2022/05/01 10:54:17;;;;;;;8.15;3.88;;;16.00;99.90;;;;;;5095753;28;20574;-47
2022/05/01 10:56:48;;;;;;;6.88;3.63;;;15.80;99.90;;;;;;5095647;28;20081;-49
2022/05/01 10:59:29;;;;;;;5.75;3.72;;;16.20;99.90;;;;;;5094855;28;21021;-44
2022/05/01 11:01:58;;;;;;;6.88;3.33;;;18.70;99.90;;;;;;5091753;28;20177;-44
2022/05/01 11:04:24;;;;;;;574.95;473.10;;;16.50;99.90;;;;;;5092811;28;20928;-46
2022/05/01 11:06:53;;;;;;;227.52;194.70;;;16.50;99.90;;;;;;5094120;28;20043;-44
2022/05/01 11:09:21;;;;;;;66.07;55.72;;;16.40;99.90;;;;;;5093930;28;21172;-47
2022/05/01 11:11:47;;;;;;;9.90;7.15;;;15.70;99.90;;;;;;5091694;28;20090;-45
2022/05/01 11:14:13;;;;;;;192.32;154.70;;;16.30;99.90;;;;;;5093141;28;20496;-44
2022/05/01 11:16:52;;;;;;;14.98;12.50;;;15.00;99.90;;;;;;5093325;28;20044;-49
2022/05/01 11:19:18;;;;;;;15.13;12.18;;;15.00;99.90;;;;;;5093203;28;20578;-46
2022/05/01 11:21:49;;;;;;;13.35;11.65;;;16.10;99.90;;;;;;5092822;28;20496;-46
2022/05/01 11:24:37;;;;;;;7.72;4.20;;;15.20;99.90;;;;;;5087814;28;20530;-44
2022/05/01 11:27:15;;;;;;;5.32;3.10;;;15.20;99.90;;;;;;5094088;28;20043;-48
2022/05/01 11:30:13;;;;;;;6.55;3.53;;;15.00;99.90;;;;;;5093291;28;20492;-48
2022/05/01 11:32:46;;;;;;;9.02;4.00;;;15.50;99.90;;;;;;5093938;28;20259;-48
2022/05/01 11:35:14;;;;;;;5.47;3.75;;;16.00;99.90;;;;;;5092548;28;20039;-49
2022/05/01 11:38:09;;;;;;;7.95;3.67;;;16.10;99.90;;;;;;5093457;28;20039;-45
2022/05/01 11:40:35;;;;;;;7.10;3.60;;;16.30;99.90;;;;;;5010495;28;20042;-47
2022/05/01 11:43:22;;;;;;;7.63;4.47;;;17.60;99.90;;;;;;5010738;28;20940;-46
2022/05/01 11:45:48;;;;;;;7.57;3.50;;;16.20;99.90;;;;;;5009750;28;20053;-47
2022/05/01 11:48:18;;;;;;;40.45;36.15;;;16.00;99.90;;;;;;5010930;28;20076;-49
2022/05/01 11:50:48;;;;;;;878.42;793.13;;;16.40;99.90;;;;;;5011105;28;20057;-47
2022/05/01 11:53:29;;;;;;;289.23;202.07;;;17.90;99.90;;;;;;5010658;28;20132;-49
2022/05/01 12:04:30;;;;;;;6.80;3.75;;;15.10;99.90;;;;;;5010419;28;20080;-45
2022/05/01 12:07:00;;;;;;;7.60;4.22;;;16.40;99.90;;;;;;5010887;28;20120;-47
2022/05/01 12:09:27;;;;;;;8.20;4.32;;;14.70;99.90;;;;;;5010542;28;20988;-46
2022/05/01 12:11:53;;;;;;;6.30;3.80;;;15.20;99.90;;;;;;5010524;28;20171;-50
2022/05/01 12:14:19;;;;;;;6.07;3.78;;;15.60;99.90;;;;;;5010761;28;20049;-45
2022/05/01 12:16:47;;;;;;;7.15;4.00;;;16.90;99.90;;;;;;5041850;28;20051;-49
2022/05/01 12:19:16;;;;;;;6.57;3.90;;;16.00;99.90;;;;;;5093624;28;20394;-48
2022/05/01 12:21:41;;;;;;;6.97;4.47;;;15.90;99.90;;;;;;5093693;28;20063;-46
2022/05/01 12:24:09;;;;;;;6.13;3.47;;;16.20;99.90;;;;;;5092296;28;20558;-45
2022/05/01 12:26:49;;;;;;;5.50;3.58;;;16.70;99.90;;;;;;5092358;28;20031;-47
2022/05/01 12:29:16;;;;;;;5.82;3.53;;;16.50;99.90;;;;;;5093048;28;20911;-47
2022/05/01 12:31:58;;;;;;;7.18;3.90;;;17.40;99.90;;;;;;5092276;28;20152;-47
2022/05/01 12:34:25;;;;;;;6.13;3.50;;;16.80;99.90;;;;;;5093101;28;20050;-46
2022/05/01 12:37:03;;;;;;;7.07;3.47;;;18.30;99.90;;;;;;5091878;28;20526;-47
2022/05/01 12:39:30;;;;;;;5.47;3.45;;;16.80;99.90;;;;;;5091352;28;20031;-49
2022/05/01 12:45:08;;;;;;;6.80;3.58;;;16.50;99.50;;;;;;5092383;28;20598;-49
2022/05/01 12:47:38;;;;;;;7.10;6.40;;;16.30;99.80;;;;;;5092747;28;20587;-45
2022/05/01 12:50:22;;;;;;;9.88;7.47;;;16.00;99.90;;;;;;5092564;28;20055;-48
2022/05/01 12:52:51;;;;;;;730.95;657.83;;;15.90;99.00;;;;;;5092974;28;20043;-46
2022/05/01 12:55:32;;;;;;;191.82;128.23;;;16.00;99.70;;;;;;5092967;28;20036;-48
2022/05/01 12:58:00;;;;;;;73.63;66.60;;;17.20;99.70;;;;;;5093244;28;20043;-47
2022/05/01 13:00:42;;;;;;;9.57;8.68;;;15.40;99.90;;;;;;5091716;28;20499;-47
2022/05/01 13:03:46;;;;;;;10.38;7.13;;;15.50;99.90;;;;;;5090663;28;20035;-46
2022/05/01 13:06:14;;;;;;;11.15;10.02;;;15.50;99.90;;;;;;5008937;28;20525;-46
2022/05/01 13:08:47;;;;;;;10.07;7.05;;;15.50;99.90;;;;;;5008241;28;20060;-50
2022/05/01 13:11:21;;;;;;;10.32;6.75;;;17.80;99.90;;;;;;5007842;28;20049;-47
2022/05/01 13:13:59;;;;;;;8.10;7.25;;;15.60;99.90;;;;;;5009937;28;20132;-49
2022/05/01 13:16:30;;;;;;;10.77;9.68;;;15.90;99.90;;;;;;5009032;28;20033;-48
2022/05/01 13:19:05;;;;;;;11.93;8.35;;;16.90;99.90;;;;;;5009134;28;20046;-50
2022/05/01 13:21:34;;;;;;;99.82;87.78;;;15.40;98.90;;;;;;5007038;28;20099;-47
2022/05/01 13:24:04;;;;;;;12.77;11.25;;;15.80;99.90;;;;;;5007336;28;20068;-46
2022/05/01 13:26:30;;;;;;;8.98;6.82;;;15.80;99.90;;;;;;5008326;28;20037;-48
2022/05/01 13:28:57;;;;;;;369.50;328.88;;;16.10;99.90;;;;;;4993509;28;20131;-50
2022/05/01 13:31:23;;;;;;;754.15;685.38;;;16.30;98.50;;;;;;5009676;28;20057;-48
2022/05/01 13:33:49;;;;;;;464.17;430.98;;;16.50;97.30;;;;;;5007149;28;20033;-46
2022/05/01 13:36:15;;;;;;;498.63;459.50;;;17.00;96.70;;;;;;5028561;28;20595;-49
2022/05/01 13:38:41;;;;;;;500.35;464.73;;;18.40;96.00;;;;;;5095766;28;20035;-50
2022/05/01 13:46:35;;;;;;;772.08;691.33;;;17.60;98.90;;;;;;5095514;28;20091;-50
2022/05/01 13:49:02;;;;;;;810.67;720.38;;;16.00;99.30;;;;;;5093727;28;20127;-48
2022/05/01 13:51:28;;;;;;;406.63;366.27;;;15.30;99.20;;;;;;5094877;28;20036;-44
2022/05/01 13:53:56;;;;;;;64.45;57.72;;;15.30;99.90;;;;;;5096183;28;20039;-50
2022/05/01 13:56:23;;;;;;;8.05;7.30;;;15.20;99.90;;;;;;5095202;28;20515;-49